Time;durP1;ratioP1;P1;durP2;ratioP2;P2;SDS_P1;SDS_P2;PMS_P1;PMS_P2;Temp;Humidity;BMP_temperature;BMP_pressure;BME280_temperature;BME280_humidity;BME280_pressure;Samples;Min_cycle;Max_cycle;Signal;HPM_P1;HPM_P2
2022/05/02 00:01:42;;;;;;;8.57;6.82;;;7.10;99.90;;;;;;5097479;28;20048;-58
2022/05/02 00:04:09;;;;;;;7.32;6.03;;;7.10;99.90;;;;;;5080498;28;20048;-58
2022/05/02 00:06:34;;;;;;;8.07;6.30;;;7.10;99.90;;;;;;5087149;28;20122;-58
2022/05/02 00:09:00;;;;;;;9.75;6.10;;;7.00;99.90;;;;;;5096234;28;20044;-57
2022/05/02 00:11:26;;;;;;;8.73;6.32;;;6.90;99.90;;;;;;5095147;28;20434;-58
2022/05/02 00:13:52;;;;;;;9.35;6.30;;;6.90;99.90;;;;;;5094677;28;20047;-57
2022/05/02 00:16:18;;;;;;;10.00;6.20;;;6.90;99.90;;;;;;5094434;28;20040;-59
2022/05/02 00:18:44;;;;;;;9.57;5.90;;;6.80;99.90;;;;;;5081338;28;20082;-57
2022/05/02 00:21:10;;;;;;;8.95;6.03;;;6.80;99.90;;;;;;5095313;28;20473;-57
2022/05/02 00:23:36;;;;;;;7.35;6.50;;;6.80;99.90;;;;;;5097597;28;20040;-57
2022/05/02 00:26:02;;;;;;;11.00;7.50;;;6.80;99.90;;;;;;5095922;28;20048;-57
2022/05/02 00:28:29;;;;;;;14.77;8.82;;;6.70;99.90;;;;;;5079530;28;20054;-57
2022/05/02 00:30:55;;;;;;;10.40;7.80;;;6.70;99.90;;;;;;5077346;28;20056;-59
2022/05/02 00:33:21;;;;;;;13.55;8.25;;;6.70;99.90;;;;;;5093406;28;20047;-58
2022/05/02 00:35:47;;;;;;;12.70;9.55;;;6.70;99.90;;;;;;5095557;28;20112;-57
2022/05/02 00:38:13;;;;;;;12.68;8.95;;;6.60;99.90;;;;;;5077404;28;20081;-58
2022/05/02 00:40:39;;;;;;;12.40;9.00;;;6.70;99.90;;;;;;5094932;28;20056;-56
2022/05/02 00:43:05;;;;;;;18.35;9.30;;;6.60;99.90;;;;;;5093995;28;20435;-58
2022/05/02 00:45:37;;;;;;;9.98;8.35;;;6.60;99.90;;;;;;5095506;28;20520;-57
2022/05/02 00:48:04;;;;;;;11.05;8.10;;;6.60;99.90;;;;;;5094672;28;20040;-57
2022/05/02 00:50:39;;;;;;;11.40;8.20;;;6.60;99.90;;;;;;5093432;28;20157;-58
2022/05/02 00:53:11;;;;;;;12.15;8.45;;;6.60;99.90;;;;;;5093099;28;20055;-57
2022/05/02 00:55:40;;;;;;;15.10;9.65;;;6.50;99.90;;;;;;5095492;28;20482;-57
2022/05/02 00:58:07;;;;;;;10.30;8.35;;;6.50;99.90;;;;;;5095095;28;20404;-58
2022/05/02 01:00:35;;;;;;;12.48;9.30;;;6.50;99.90;;;;;;5095184;28;20048;-58
2022/05/02 01:03:03;;;;;;;13.05;9.25;;;6.40;99.90;;;;;;5061598;28;20052;-57
2022/05/02 01:05:29;;;;;;;16.48;9.27;;;6.40;99.90;;;;;;5078868;28;20135;-58
2022/05/02 01:07:55;;;;;;;11.55;8.98;;;6.40;99.90;;;;;;5077164;28;20443;-57
2022/05/02 01:10:22;;;;;;;13.38;9.15;;;6.40;99.90;;;;;;5094541;28;20047;-57
2022/05/02 01:12:48;;;;;;;10.98;8.93;;;6.40;99.90;;;;;;5079359;28;20483;-57
2022/05/02 01:15:16;;;;;;;13.27;8.85;;;6.40;99.90;;;;;;5095677;28;20044;-56
2022/05/02 01:17:44;;;;;;;12.57;9.02;;;6.30;99.90;;;;;;5077427;28;20394;-58
2022/05/02 01:20:14;;;;;;;13.55;9.77;;;6.30;99.90;;;;;;5096905;28;20048;-57
2022/05/02 01:22:41;;;;;;;12.75;9.25;;;6.30;99.90;;;;;;5078127;28;20040;-57
2022/05/02 01:25:08;;;;;;;10.02;8.77;;;6.30;99.90;;;;;;5096058;28;20039;-57
2022/05/02 01:27:33;;;;;;;12.75;8.65;;;6.20;99.90;;;;;;5095400;28;20109;-57
2022/05/02 01:30:00;;;;;;;10.55;8.38;;;6.20;99.90;;;;;;5095257;28;20044;-58
2022/05/02 01:32:26;;;;;;;11.32;9.43;;;6.20;99.90;;;;;;5096866;28;20071;-58
2022/05/02 01:34:52;;;;;;;11.07;9.25;;;6.20;99.90;;;;;;5084522;28;20047;-58
2022/05/02 01:37:18;;;;;;;12.50;9.60;;;6.10;99.90;;;;;;5095445;28;20043;-57
2022/05/02 01:39:44;;;;;;;14.15;9.27;;;6.10;99.90;;;;;;5095384;28;20048;-57
2022/05/02 01:42:11;;;;;;;12.25;9.23;;;6.00;99.90;;;;;;5094989;28;20524;-57
2022/05/02 01:44:39;;;;;;;13.30;9.45;;;6.10;99.90;;;;;;5092468;28;20074;-58
2022/05/02 01:47:07;;;;;;;12.80;9.02;;;6.00;99.90;;;;;;5065946;28;20062;-58
2022/05/02 01:49:33;;;;;;;14.90;10.80;;;6.00;99.90;;;;;;5093120;28;20082;-57
2022/05/02 01:51:59;;;;;;;12.77;10.07;;;6.00;99.90;;;;;;5084487;28;20128;-58
2022/05/02 01:54:25;;;;;;;14.77;10.10;;;6.00;99.90;;;;;;5092863;28;20459;-58
2022/05/02 01:56:51;;;;;;;13.90;9.88;;;6.00;99.90;;;;;;5083484;28;20084;-57
2022/05/02 01:59:18;;;;;;;11.38;9.75;;;5.90;99.90;;;;;;5091623;28;20055;-58
2022/05/02 02:01:43;;;;;;;14.43;10.57;;;5.90;99.90;;;;;;5091809;28;20051;-57
2022/05/02 02:06:54;;;;;;;12.38;8.73;;;5.80;99.90;;;;;;5078450;28;20097;-58
2022/05/02 02:09:20;;;;;;;14.32;10.15;;;5.80;99.90;;;;;;5094164;28;20048;-57
2022/05/02 02:11:46;;;;;;;13.63;9.50;;;5.80;99.90;;;;;;5074461;28;20051;-59
2022/05/02 02:14:13;;;;;;;13.20;9.60;;;5.80;99.90;;;;;;5093500;28;20134;-57
2022/05/02 02:16:39;;;;;;;14.77;9.00;;;5.70;99.90;;;;;;5092994;28;20132;-57
2022/05/02 02:19:05;;;;;;;11.43;8.82;;;5.70;99.90;;;;;;5091420;28;20081;-57
2022/05/02 02:21:32;;;;;;;12.80;9.30;;;5.70;99.90;;;;;;5093074;28;20124;-58
2022/05/02 02:23:58;;;;;;;15.68;10.35;;;5.60;99.90;;;;;;5094763;28;20056;-58
2022/05/02 02:26:25;;;;;;;12.95;10.25;;;5.60;99.90;;;;;;5094218;28;20039;-57
2022/05/02 02:28:51;;;;;;;14.82;10.65;;;5.60;99.90;;;;;;5093677;28;20048;-57
2022/05/02 02:31:16;;;;;;;13.20;9.57;;;5.60;99.90;;;;;;5092889;28;20107;-57
2022/05/02 02:33:43;;;;;;;12.43;9.88;;;5.60;99.90;;;;;;5093340;28;20093;-57
2022/05/02 02:36:08;;;;;;;11.77;9.20;;;5.50;99.90;;;;;;5093653;28;20458;-57
2022/05/02 02:38:34;;;;;;;10.88;8.55;;;5.50;99.90;;;;;;5093890;28;20047;-58
2022/05/02 02:41:00;;;;;;;10.02;8.75;;;5.40;99.90;;;;;;5092834;28;20146;-56
2022/05/02 02:43:26;;;;;;;9.23;8.13;;;5.40;99.90;;;;;;5092769;28;20129;-57
2022/05/02 02:45:52;;;;;;;11.57;8.60;;;5.40;99.90;;;;;;5093203;28;20036;-58
2022/05/02 02:48:18;;;;;;;10.23;8.57;;;5.30;99.90;;;;;;5094096;28;20130;-57
2022/05/02 02:50:44;;;;;;;14.52;9.40;;;5.30;99.90;;;;;;5078804;28;20044;-58
2022/05/02 02:53:10;;;;;;;11.07;9.00;;;5.30;99.90;;;;;;5093232;28;20035;-57
2022/05/02 02:55:36;;;;;;;11.23;8.60;;;5.20;99.90;;;;;;5093365;28;20036;-58
2022/05/02 02:58:02;;;;;;;11.65;9.38;;;5.20;99.90;;;;;;5093560;28;20073;-57
2022/05/02 03:00:29;;;;;;;13.25;9.95;;;5.20;99.90;;;;;;5082079;28;20051;-58
2022/05/02 03:02:55;;;;;;;12.82;9.98;;;5.20;99.90;;;;;;5094478;28;20086;-58
2022/05/02 03:08:09;;;;;;;12.43;9.88;;;5.20;99.90;;;;;;5093966;28;20044;-59
2022/05/02 03:10:36;;;;;;;12.25;10.10;;;5.10;99.90;;;;;;5095367;28;20124;-59
2022/05/02 03:13:04;;;;;;;13.10;10.18;;;5.10;99.90;;;;;;5092766;28;20044;-57
2022/05/02 03:15:31;;;;;;;13.15;10.05;;;5.10;99.90;;;;;;5093950;28;20032;-57
2022/05/02 03:17:57;;;;;;;12.65;9.70;;;5.10;99.90;;;;;;5093790;28;20032;-58
2022/05/02 03:20:23;;;;;;;14.70;10.25;;;5.10;99.90;;;;;;5092129;28;20493;-58
2022/05/02 03:22:49;;;;;;;13.25;10.50;;;5.00;99.90;;;;;;5081402;28;20044;-58
2022/05/02 03:25:15;;;;;;;12.77;9.85;;;5.00;99.90;;;;;;5094878;28;20044;-57
2022/05/02 03:27:41;;;;;;;12.20;9.45;;;5.00;99.90;;;;;;5093280;28;20158;-56
2022/05/02 03:30:07;;;;;;;10.77;9.40;;;5.00;99.90;;;;;;5092940;28;20123;-55
2022/05/02 03:32:33;;;;;;;12.90;9.52;;;5.00;99.90;;;;;;5094693;28;20044;-55
2022/05/02 03:35:00;;;;;;;10.68;9.50;;;5.00;99.90;;;;;;5073065;28;20429;-56
2022/05/02 03:37:26;;;;;;;10.45;9.38;;;5.00;99.90;;;;;;5073694;28;20051;-56
2022/05/02 03:39:51;;;;;;;10.57;8.93;;;4.90;99.90;;;;;;5073540;28;20044;-57
2022/05/02 03:42:17;;;;;;;16.75;10.90;;;4.90;99.90;;;;;;5089535;28;20052;-57
2022/05/02 03:44:43;;;;;;;11.35;9.18;;;4.90;99.90;;;;;;5088390;28;20140;-56
2022/05/02 03:47:09;;;;;;;13.95;9.95;;;4.90;99.90;;;;;;5088612;28;20122;-56
2022/05/02 03:49:35;;;;;;;12.27;9.95;;;4.80;99.90;;;;;;5090505;28;20044;-56
2022/05/02 03:52:01;;;;;;;11.70;9.93;;;4.80;99.90;;;;;;5088756;28;20052;-56
2022/05/02 03:54:27;;;;;;;12.80;8.77;;;4.80;99.90;;;;;;5087868;28;20047;-56
2022/05/02 03:56:53;;;;;;;10.02;7.05;;;4.80;99.90;;;;;;5090353;28;20036;-56
2022/05/02 03:59:19;;;;;;;6.63;5.93;;;4.80;99.90;;;;;;5092679;28;20044;-57
2022/05/02 04:01:45;;;;;;;6.75;6.10;;;4.70;99.90;;;;;;5074180;28;20044;-58
2022/05/02 04:04:11;;;;;;;6.75;6.10;;;4.70;99.90;;;;;;5091743;28;20052;-56
2022/05/02 04:06:37;;;;;;;6.00;5.28;;;4.60;99.90;;;;;;5076788;28;20074;-56
2022/05/02 04:09:03;;;;;;;6.47;4.78;;;4.50;99.90;;;;;;5092806;28;20047;-57
2022/05/02 04:11:30;;;;;;;5.90;5.22;;;4.40;99.90;;;;;;5076795;28;20047;-56
2022/05/02 04:13:55;;;;;;;5.72;5.18;;;4.30;99.90;;;;;;5079283;28;20086;-57
2022/05/02 04:16:21;;;;;;;5.68;5.18;;;4.20;99.90;;;;;;5095300;27;20074;-56
2022/05/02 04:18:48;;;;;;;5.95;5.07;;;4.10;99.90;;;;;;5097151;28;20074;-55
2022/05/02 04:21:14;;;;;;;6.57;5.40;;;4.00;99.90;;;;;;5091725;28;20075;-56
2022/05/02 04:23:40;;;;;;;7.28;6.57;;;3.90;99.90;;;;;;5061118;28;20051;-57
2022/05/02 04:26:06;;;;;;;7.85;6.65;;;4.00;99.90;;;;;;5096134;28;20092;-56
2022/05/02 04:28:34;;;;;;;9.70;7.38;;;3.90;99.90;;;;;;5096332;28;20039;-55
2022/05/02 04:31:00;;;;;;;10.05;8.38;;;3.90;99.90;;;;;;5082119;28;20091;-56
2022/05/02 04:33:26;;;;;;;10.52;8.00;;;3.90;99.90;;;;;;5096723;28;20086;-55
2022/05/02 04:35:53;;;;;;;16.08;9.48;;;4.00;99.90;;;;;;5095366;28;20047;-57
2022/05/02 04:38:19;;;;;;;10.30;8.38;;;4.00;99.90;;;;;;5069331;28;20448;-55
2022/05/02 04:40:45;;;;;;;12.20;8.73;;;4.00;99.90;;;;;;5093650;28;20690;-57
2022/05/02 04:43:10;;;;;;;10.35;8.90;;;4.00;99.90;;;;;;5096994;28;20102;-56
2022/05/02 04:45:36;;;;;;;9.57;7.70;;;4.00;99.90;;;;;;5093868;28;20071;-57
2022/05/02 04:48:02;;;;;;;9.93;8.75;;;4.10;99.90;;;;;;5096202;28;20078;-57
2022/05/02 04:50:28;;;;;;;11.15;8.35;;;4.10;99.90;;;;;;5086620;28;20066;-56
2022/05/02 04:52:54;;;;;;;9.70;8.13;;;4.10;99.90;;;;;;5096112;28;20147;-56
2022/05/02 04:55:20;;;;;;;9.02;8.07;;;4.20;99.90;;;;;;5096234;28;20405;-57
2022/05/02 04:57:46;;;;;;;13.15;8.15;;;4.20;99.90;;;;;;5094767;28;20046;-56
2022/05/02 05:00:16;;;;;;;9.20;7.88;;;4.20;99.90;;;;;;5095189;28;20070;-56
2022/05/02 05:02:42;;;;;;;8.55;7.50;;;4.30;99.90;;;;;;5095370;28;20052;-55
2022/05/02 05:05:09;;;;;;;10.23;7.55;;;4.30;99.90;;;;;;5096363;28;20083;-56
2022/05/02 05:07:38;;;;;;;10.43;8.40;;;4.30;99.90;;;;;;5095475;28;20500;-54
2022/05/02 05:10:06;;;;;;;10.38;6.97;;;4.40;99.90;;;;;;5095621;28;20093;-57
2022/05/02 05:12:57;;;;;;;11.68;7.75;;;4.40;99.90;;;;;;5095420;28;20047;-57
2022/05/02 05:18:41;;;;;;;16.17;11.02;;;4.50;99.90;;;;;;5078756;28;20044;-58
2022/05/02 05:21:10;;;;;;;10.52;8.70;;;4.50;99.90;;;;;;5093656;28;20181;-58
2022/05/02 05:23:36;;;;;;;9.55;8.55;;;4.50;99.90;;;;;;5092039;28;20092;-58
2022/05/02 05:26:23;;;;;;;11.07;7.57;;;4.60;99.90;;;;;;5095141;28;20136;-58
2022/05/02 05:28:49;;;;;;;8.77;7.00;;;4.60;99.90;;;;;;5093430;28;20047;-57
2022/05/02 05:31:38;;;;;;;13.50;9.70;;;4.60;99.90;;;;;;5093626;28;20059;-57
2022/05/02 05:34:29;;;;;;;17.60;11.77;;;4.70;99.90;;;;;;5084901;28;20054;-59
2022/05/02 05:37:27;;;;;;;16.65;12.55;;;4.70;99.90;;;;;;5094657;28;20040;-57
2022/05/02 05:40:19;;;;;;;17.75;13.43;;;4.80;99.90;;;;;;5074174;28;20047;-57
2022/05/02 05:43:17;;;;;;;19.02;13.70;;;4.90;99.90;;;;;;5076047;28;20048;-57
2022/05/02 05:45:49;;;;;;;20.83;13.88;;;5.00;99.90;;;;;;5094056;28;20058;-56
2022/05/02 05:48:53;;;;;;;18.85;13.70;;;5.10;99.90;;;;;;5095355;28;20126;-57
2022/05/02 05:51:54;;;;;;;21.17;15.07;;;5.20;99.90;;;;;;5093437;28;20608;-56
2022/05/02 05:54:35;;;;;;;24.00;15.52;;;5.30;99.90;;;;;;5078725;28;20051;-57
2022/05/02 05:57:12;;;;;;;23.10;15.27;;;5.40;99.90;;;;;;5092573;28;20051;-56
2022/05/02 06:00:04;;;;;;;24.00;15.68;;;5.50;99.90;;;;;;5095079;28;20040;-55
2022/05/02 06:02:50;;;;;;;19.27;15.07;;;5.60;99.90;;;;;;5095363;28;20413;-56
2022/05/02 06:05:17;;;;;;;21.35;14.43;;;5.70;99.90;;;;;;5094990;28;20491;-57
2022/05/02 06:07:44;;;;;;;18.08;14.25;;;5.90;99.90;;;;;;5076739;28;20056;-56
2022/05/02 06:10:10;;;;;;;19.83;14.82;;;5.90;99.90;;;;;;5092885;28;20040;-57
2022/05/02 06:12:39;;;;;;;26.02;14.95;;;6.00;99.90;;;;;;5094188;28;20055;-56
2022/05/02 06:20:42;;;;;;;18.83;13.43;;;6.40;99.90;;;;;;5084070;28;20048;-57
2022/05/02 06:23:10;;;;;;;18.40;12.85;;;6.50;99.90;;;;;;5091790;28;20058;-56
2022/05/02 06:25:37;;;;;;;18.85;12.68;;;6.60;99.90;;;;;;5093040;28;20462;-58
2022/05/02 06:28:05;;;;;;;18.23;13.70;;;6.80;99.90;;;;;;5094702;28;20515;-57
2022/05/02 06:30:34;;;;;;;13.18;11.73;;;6.90;99.90;;;;;;5093414;28;20183;-57
2022/05/02 06:33:05;;;;;;;18.65;12.55;;;7.00;99.90;;;;;;5093742;28;20510;-57
2022/05/02 06:36:01;;;;;;;20.95;14.60;;;7.10;99.90;;;;;;5092583;28;20039;-56
2022/05/02 06:38:55;;;;;;;21.35;16.45;;;7.30;99.90;;;;;;5070521;28;20039;-56
2022/05/02 06:41:38;;;;;;;26.02;17.80;;;7.40;99.90;;;;;;5075400;28;20047;-56
2022/05/02 06:44:29;;;;;;;30.17;22.75;;;7.50;99.90;;;;;;5094898;28;20082;-56
2022/05/02 06:47:14;;;;;;;41.80;32.92;;;7.70;99.90;;;;;;5094351;28;20098;-58
2022/05/02 06:49:43;;;;;;;33.65;27.55;;;7.90;99.90;;;;;;5092285;28;20059;-58
2022/05/02 06:52:11;;;;;;;32.90;25.48;;;8.00;99.90;;;;;;5094303;28;20044;-54
2022/05/02 06:54:52;;;;;;;39.20;34.78;;;8.10;99.90;;;;;;5093668;28;20046;-58
2022/05/02 06:57:31;;;;;;;51.90;44.17;;;8.30;99.90;;;;;;5092514;28;20058;-58
2022/05/02 07:00:14;;;;;;;49.17;43.33;;;8.40;99.90;;;;;;5094065;28;20075;-58
2022/05/02 07:02:42;;;;;;;;;;;8.60;99.90;;;;;;5093655;28;20047;-58
2022/05/02 07:05:17;;;;;;;51.70;44.83;;;8.70;99.90;;;;;;5076681;28;19916;-56
2022/05/02 07:08:05;;;;;;;42.10;35.72;;;8.80;99.90;;;;;;5092238;28;20043;-57
2022/05/02 07:10:40;;;;;;;44.95;36.83;;;8.90;99.90;;;;;;5090453;28;20047;-57
2022/05/02 07:13:48;;;;;;;44.08;34.92;;;9.00;99.90;;;;;;5093033;28;20085;-58
2022/05/02 07:16:22;;;;;;;37.80;28.30;;;9.20;99.90;;;;;;5092548;28;20379;-57
2022/05/02 07:19:12;;;;;;;36.13;26.60;;;9.40;99.90;;;;;;5090399;28;20066;-57
2022/05/02 07:21:51;;;;;;;25.75;20.73;;;9.50;99.90;;;;;;5091985;28;20036;-58
2022/05/02 07:24:35;;;;;;;18.60;14.15;;;9.70;99.90;;;;;;5093718;28;20042;-58
2022/05/02 07:27:16;;;;;;;19.42;13.68;;;9.80;99.90;;;;;;5076129;28;20494;-59
2022/05/02 07:29:44;;;;;;;16.52;12.88;;;10.00;99.90;;;;;;5092344;28;20039;-58
2022/05/02 07:32:13;;;;;;;18.65;12.10;;;10.10;99.90;;;;;;5093234;28;20525;-59
2022/05/02 07:34:41;;;;;;;17.40;13.50;;;10.20;99.90;;;;;;5074801;28;20028;-57
2022/05/02 07:37:11;;;;;;;15.93;12.88;;;10.30;99.90;;;;;;5075685;28;20123;-57
2022/05/02 07:39:39;;;;;;;15.00;10.90;;;10.40;99.90;;;;;;5059217;28;20591;-58
2022/05/02 07:42:06;;;;;;;14.55;10.40;;;10.60;99.90;;;;;;5092283;28;20048;-58
2022/05/02 07:44:34;;;;;;;15.07;9.80;;;10.70;99.90;;;;;;5094318;28;20207;-58
2022/05/02 07:47:04;;;;;;;8.63;7.72;;;10.80;99.90;;;;;;5096738;28;20054;-58
2022/05/02 07:49:33;;;;;;;10.00;8.02;;;10.90;99.90;;;;;;5096942;28;20039;-59
2022/05/02 07:52:01;;;;;;;11.70;8.32;;;11.00;99.90;;;;;;5081730;28;20050;-57
2022/05/02 07:54:42;;;;;;;9.48;7.68;;;11.10;99.90;;;;;;5097759;28;20524;-58
2022/05/02 07:57:09;;;;;;;9.52;7.78;;;11.30;99.90;;;;;;5096937;28;20044;-58
2022/05/02 07:59:38;;;;;;;10.57;8.00;;;11.40;99.90;;;;;;5097540;28;20051;-56
2022/05/02 08:02:05;;;;;;;12.23;7.40;;;11.50;99.90;;;;;;5097343;28;20075;-58
2022/05/02 08:04:31;;;;;;;11.48;7.65;;;11.60;99.90;;;;;;5097969;28;20060;-57
2022/05/02 08:07:16;;;;;;;9.77;7.80;;;11.70;99.90;;;;;;5097255;28;20039;-58
2022/05/02 08:10:16;;;;;;;12.35;7.50;;;11.70;99.90;;;;;;5097690;28;20576;-58
2022/05/02 08:12:52;;;;;;;10.30;7.30;;;11.90;99.90;;;;;;5094609;28;20078;-58
2022/05/02 08:15:26;;;;;;;9.50;7.00;;;12.00;99.90;;;;;;5093967;28;20330;-58
2022/05/02 08:18:30;;;;;;;10.05;7.15;;;12.10;99.90;;;;;;5094249;28;20036;-57
2022/05/02 08:21:02;;;;;;;13.27;7.65;;;12.20;99.90;;;;;;5093977;28;20032;-58
2022/05/02 08:27:15;;;;;;;10.90;8.50;;;12.40;99.90;;;;;;5092843;28;20048;-57
2022/05/02 08:30:09;;;;;;;10.68;7.80;;;12.60;99.90;;;;;;5095234;28;20117;-58
2022/05/02 08:32:50;;;;;;;9.32;7.28;;;12.70;99.90;;;;;;5093392;28;20052;-58
2022/05/02 08:35:33;;;;;;;13.43;7.60;;;12.80;99.90;;;;;;5095366;28;20035;-59
2022/05/02 08:38:14;;;;;;;11.52;7.40;;;12.90;99.90;;;;;;5096184;28;20118;-58
2022/05/02 08:40:40;;;;;;;8.82;7.00;;;13.00;99.90;;;;;;5086090;28;20616;-59
2022/05/02 08:43:43;;;;;;;13.60;7.63;;;13.10;99.90;;;;;;5096353;28;20130;-57
2022/05/02 08:46:40;;;;;;;11.52;7.30;;;13.20;99.80;;;;;;5096302;28;20051;-58
2022/05/02 08:49:50;;;;;;;10.32;7.65;;;13.30;99.10;;;;;;5097336;28;20054;-58
2022/05/02 08:52:32;;;;;;;9.63;7.57;;;13.40;98.90;;;;;;5095972;28;20120;-58
2022/05/02 08:55:20;;;;;;;9.63;7.72;;;13.50;98.10;;;;;;5096590;28;20050;-57
2022/05/02 08:58:23;;;;;;;10.38;7.82;;;13.60;97.80;;;;;;5093492;28;20484;-59
2022/05/02 09:01:37;;;;;;;11.60;7.93;;;13.70;97.20;;;;;;5093532;28;20506;-59
2022/05/02 09:04:34;;;;;;;10.43;7.43;;;13.80;97.60;;;;;;5085406;28;20095;-59
2022/05/02 09:07:23;;;;;;;12.10;7.43;;;13.90;96.70;;;;;;5077155;28;20056;-58
2022/05/02 09:10:14;;;;;;;9.05;7.20;;;14.10;96.40;;;;;;5096990;28;20485;-58
2022/05/02 09:13:09;;;;;;;10.98;7.88;;;14.20;96.20;;;;;;5095267;28;20052;-57
2022/05/02 09:16:10;;;;;;;15.32;7.75;;;14.30;95.60;;;;;;5078951;28;20112;-57
2022/05/02 09:18:50;;;;;;;10.88;7.72;;;14.50;94.30;;;;;;5093986;28;20570;-57
2022/05/02 09:21:16;;;;;;;11.13;7.38;;;14.60;94.50;;;;;;5094549;28;20114;-58
2022/05/02 09:24:21;;;;;;;12.13;7.60;;;14.70;94.10;;;;;;5075574;28;20236;-58
2022/05/02 09:26:54;;;;;;;10.10;7.63;;;14.90;92.80;;;;;;5093572;28;20886;-58
2022/05/02 09:29:37;;;;;;;12.45;7.88;;;14.90;91.70;;;;;;5076597;28;20086;-58
2022/05/02 09:32:28;;;;;;;9.45;6.53;;;15.00;92.10;;;;;;5094199;28;20060;-58
2022/05/02 09:34:58;;;;;;;9.93;6.85;;;15.10;89.00;;;;;;5094745;28;20186;-57
2022/05/02 09:37:38;;;;;;;7.68;6.43;;;15.30;90.50;;;;;;5088890;28;20089;-57
2022/05/02 09:40:14;;;;;;;10.45;7.13;;;15.40;85.40;;;;;;5093381;28;20119;-59
2022/05/02 09:42:40;;;;;;;9.23;6.70;;;15.50;86.40;;;;;;5074611;28;20051;-57
2022/05/02 09:51:39;;;;;;;9.13;6.72;;;15.90;85.00;;;;;;5095236;28;20105;-58
2022/05/02 09:58:03;;;;;;;;;;;16.10;83.50;;;;;;5095069;28;20130;-59
2022/05/02 10:01:08;;;;;;;7.88;6.90;;;16.20;87.30;;;;;;5094680;28;19919;-58
2022/05/02 10:03:59;;;;;;;10.18;6.72;;;16.40;84.20;;;;;;5095317;28;20558;-58
2022/05/02 10:06:46;;;;;;;9.20;6.88;;;16.60;84.10;;;;;;5095284;28;20251;-57
2022/05/02 10:09:50;;;;;;;10.63;6.40;;;16.80;81.80;;;;;;5090014;28;20047;-58
2022/05/02 10:12:38;;;;;;;8.52;6.05;;;16.90;79.80;;;;;;5090510;28;20046;-58
2022/05/02 10:15:16;;;;;;;12.20;6.43;;;17.00;78.30;;;;;;5091389;28;20044;-58
2022/05/02 10:17:45;;;;;;;10.70;6.57;;;17.00;75.90;;;;;;5072894;28;20046;-59
2022/05/02 10:20:19;;;;;;;8.63;6.65;;;17.10;76.90;;;;;;5093750;28;20047;-58
2022/05/02 10:22:51;;;;;;;7.85;6.32;;;17.20;75.40;;;;;;5092287;28;20115;-58
2022/05/02 10:25:40;;;;;;;6.78;6.00;;;17.30;72.70;;;;;;5093053;28;20046;-58
2022/05/02 10:28:29;;;;;;;6.18;5.40;;;17.30;73.20;;;;;;5093214;28;20043;-58
2022/05/02 10:31:13;;;;;;;8.32;5.88;;;17.50;70.80;;;;;;5094839;28;20051;-58
2022/05/02 10:33:44;;;;;;;7.03;5.78;;;17.60;71.00;;;;;;5094197;28;20079;-58
2022/05/02 10:36:11;;;;;;;8.65;6.25;;;17.80;70.80;;;;;;5066524;28;20052;-59
2022/05/02 10:38:53;;;;;;;9.02;5.82;;;17.90;68.70;;;;;;5094535;28;20048;-58
2022/05/02 10:41:27;;;;;;;6.43;5.75;;;17.80;67.20;;;;;;5076877;28;20078;-58
2022/05/02 10:44:02;;;;;;;7.00;5.40;;;17.80;67.70;;;;;;5094146;28;20043;-59
2022/05/02 10:46:31;;;;;;;6.10;5.18;;;17.80;67.20;;;;;;5077010;28;20044;-58
2022/05/02 10:49:12;;;;;;;8.63;6.25;;;17.90;69.10;;;;;;5092365;28;20047;-58
2022/05/02 10:52:01;;;;;;;6.82;5.35;;;18.20;68.50;;;;;;5077975;28;20051;-59
2022/05/02 10:54:50;;;;;;;7.18;5.25;;;18.40;67.30;;;;;;5094297;28;20085;-58
2022/05/02 10:57:30;;;;;;;5.35;4.25;;;18.50;67.20;;;;;;5094447;28;20107;-58
2022/05/02 11:00:04;;;;;;;10.02;5.22;;;18.70;66.40;;;;;;5093752;28;20051;-59
2022/05/02 11:02:41;;;;;;;5.60;4.53;;;18.80;63.90;;;;;;5093368;28;20542;-58
2022/05/02 11:05:14;;;;;;;5.72;4.78;;;18.80;62.50;;;;;;5093293;28;20154;-59
2022/05/02 11:07:46;;;;;;;7.00;4.22;;;18.80;61.50;;;;;;5094716;28;20154;-59
2022/05/02 11:10:17;;;;;;;8.30;4.35;;;18.80;61.90;;;;;;5094684;28;20498;-59
2022/05/02 11:12:59;;;;;;;7.93;4.50;;;19.00;62.90;;;;;;5093590;28;20047;-58
2022/05/02 11:15:35;;;;;;;5.38;4.25;;;19.20;64.20;;;;;;5092707;28;20086;-59
2022/05/02 11:21:19;;;;;;;5.55;4.55;;;19.60;61.40;;;;;;5078588;28;20429;-58
2022/05/02 11:24:11;;;;;;;5.90;4.00;;;19.60;61.80;;;;;;5095718;28;20043;-58
2022/05/02 11:26:49;;;;;;;5.15;4.22;;;19.60;60.50;;;;;;5098751;28;20054;-58
2022/05/02 11:29:22;;;;;;;4.95;4.00;;;19.70;58.40;;;;;;5079744;28;20058;-60
2022/05/02 11:31:57;;;;;;;3.90;3.53;;;19.60;59.00;;;;;;5098131;28;20055;-60
2022/05/02 11:34:41;;;;;;;4.88;3.95;;;19.70;58.60;;;;;;5098677;28;20035;-59
2022/05/02 11:37:34;;;;;;;5.95;4.10;;;19.80;58.90;;;;;;5098914;28;20427;-58
2022/05/02 11:40:09;;;;;;;5.53;3.70;;;20.00;59.40;;;;;;5097855;28;20303;-58
2022/05/02 11:42:44;;;;;;;5.15;3.40;;;20.10;58.60;;;;;;5078511;28;20078;-59
2022/05/02 11:45:12;;;;;;;5.78;3.95;;;20.20;57.60;;;;;;5085920;28;20072;-59
2022/05/02 11:48:11;;;;;;;5.53;4.05;;;20.20;57.90;;;;;;5098767;28;20044;-58
2022/05/02 11:50:46;;;;;;;4.57;3.53;;;20.40;57.60;;;;;;5072287;28;20051;-58
2022/05/02 11:53:15;;;;;;;8.55;4.70;;;20.50;56.80;;;;;;5098441;28;20397;-59
2022/05/02 11:55:46;;;;;;;6.00;4.43;;;20.50;57.60;;;;;;5097275;28;20051;-59
2022/05/02 11:58:24;;;;;;;5.17;4.13;;;20.50;57.30;;;;;;5065028;28;20054;-58
2022/05/02 12:00:57;;;;;;;5.90;4.22;;;20.60;57.40;;;;;;5096098;28;20556;-58
2022/05/02 12:03:25;;;;;;;7.03;4.65;;;20.70;57.30;;;;;;5098996;28;20048;-58
2022/05/02 12:05:52;;;;;;;8.43;5.10;;;20.70;57.50;;;;;;5078887;28;20123;-57
2022/05/02 12:08:26;;;;;;;4.90;4.40;;;20.60;57.90;;;;;;5096785;28;20055;-57
2022/05/02 12:11:08;;;;;;;8.80;4.95;;;20.50;58.40;;;;;;5092494;28;20139;-58
2022/05/02 12:13:45;;;;;;;9.77;4.97;;;20.60;59.60;;;;;;5094378;28;20044;-57
2022/05/02 12:16:13;;;;;;;6.18;4.90;;;20.50;59.40;;;;;;5085742;28;20047;-58
2022/05/02 12:18:45;;;;;;;7.65;4.60;;;20.50;59.60;;;;;;5095536;28;20039;-58
2022/05/02 12:21:33;;;;;;;5.88;4.70;;;20.50;59.50;;;;;;5094317;28;20071;-59
2022/05/02 12:24:00;;;;;;;7.97;5.00;;;20.60;59.60;;;;;;5096151;28;20054;-59
2022/05/02 12:26:28;;;;;;;8.60;5.03;;;20.80;59.50;;;;;;5095865;28;20351;-57
2022/05/02 12:29:03;;;;;;;7.97;4.85;;;21.00;59.30;;;;;;5077025;28;20123;-57
2022/05/02 12:31:32;;;;;;;5.75;4.60;;;21.20;59.60;;;;;;5094078;28;20414;-58
2022/05/02 12:34:07;;;;;;;6.70;5.18;;;21.40;59.10;;;;;;5079702;28;20086;-58
2022/05/02 12:36:46;;;;;;;7.90;4.32;;;21.40;57.20;;;;;;5096580;28;20068;-57
2022/05/02 12:39:31;;;;;;;8.60;4.80;;;21.20;57.10;;;;;;5096227;28;20042;-59
2022/05/02 12:42:15;;;;;;;5.68;5.03;;;21.20;58.00;;;;;;5097363;28;20046;-58
2022/05/02 12:45:03;;;;;;;5.70;5.00;;;21.30;58.50;;;;;;5096556;28;20389;-58
2022/05/02 12:47:53;;;;;;;6.55;4.70;;;21.30;56.60;;;;;;5077866;28;20044;-58
2022/05/02 12:50:25;;;;;;;9.00;5.10;;;21.40;57.80;;;;;;5086459;28;20086;-57
2022/05/02 12:52:56;;;;;;;8.18;5.10;;;21.50;57.50;;;;;;5078750;28;20067;-58
2022/05/02 12:55:38;;;;;;;7.43;4.85;;;21.50;57.60;;;;;;5079930;28;20052;-59
2022/05/02 13:00:55;;;;;;;6.00;4.90;;;21.60;58.60;;;;;;5095468;28;20075;-58
2022/05/02 13:03:27;;;;;;;6.80;5.47;;;21.70;58.00;;;;;;5094654;28;20119;-59
2022/05/02 13:06:08;;;;;;;7.68;5.30;;;21.70;57.60;;;;;;5096156;28;20044;-58
2022/05/02 13:08:38;;;;;;;8.48;5.15;;;21.80;57.30;;;;;;5094998;28;20051;-58
2022/05/02 13:11:16;;;;;;;9.18;5.05;;;21.80;57.00;;;;;;5093344;28;20086;-58
2022/05/02 13:13:47;;;;;;;6.90;5.00;;;21.60;56.30;;;;;;5097205;28;20314;-59
2022/05/02 13:16:33;;;;;;;8.52;4.72;;;21.50;56.60;;;;;;5078797;28;20512;-59
2022/05/02 13:19:03;;;;;;;6.40;4.60;;;21.60;56.50;;;;;;5078565;28;20411;-59
2022/05/02 13:21:30;;;;;;;6.60;4.88;;;21.70;56.90;;;;;;5095663;28;20040;-57
2022/05/02 13:24:17;;;;;;;9.10;5.18;;;21.90;56.60;;;;;;5060175;28;20047;-58
2022/05/02 13:26:58;;;;;;;5.93;4.95;;;22.00;56.30;;;;;;5095890;28;20056;-57
2022/05/02 13:29:43;;;;;;;6.47;4.78;;;22.10;56.90;;;;;;5076047;28;20052;-58
2022/05/02 13:32:41;;;;;;;6.38;4.70;;;22.10;57.20;;;;;;5094267;28;20055;-58
2022/05/02 13:35:11;;;;;;;6.97;4.38;;;22.00;56.20;;;;;;5095689;28;20134;-58
2022/05/02 13:37:50;;;;;;;5.72;4.82;;;22.10;57.00;;;;;;5093304;28;20106;-57
2022/05/02 13:40:20;;;;;;;6.82;4.57;;;22.10;56.40;;;;;;5062724;28;20048;-58
2022/05/02 13:43:04;;;;;;;7.90;4.10;;;22.10;55.90;;;;;;5076350;28;20409;-57
2022/05/02 13:45:38;;;;;;;10.98;4.63;;;22.20;56.10;;;;;;5094457;28;20453;-59
2022/05/02 13:48:33;;;;;;;7.05;4.40;;;22.20;54.70;;;;;;5093046;28;20040;-58
2022/05/02 13:51:08;;;;;;;6.65;3.97;;;22.20;55.30;;;;;;5092442;28;20056;-59
2022/05/02 13:53:55;;;;;;;6.43;4.43;;;22.30;55.30;;;;;;5076955;28;20047;-59
2022/05/02 13:56:49;;;;;;;7.68;4.88;;;22.40;54.40;;;;;;5094202;28;20044;-57